Moosonee Airport
CYMO : now visible

Airfield :











YOU CAN JOIN US ON...

 
LOGIN :

Register | Disclaimer

   EN    FR    IT 

 









Legend :    VFR   Marginal VFR   IFR   Intensive IFR   Very Intensive IFR
Visi :
Ceiling :
>= 8 km
>= 3000ft
5 to 8 km
1000 to 3000 ft
1500m to 5 km
500 to 1000 ft
800 to 1500m
200 to 500 ft
< 800m
< 200 ft
Symbols :   Thunderstorms  Fog  Heavy snow  Heavy precipitations  Wind > 20 kt






- Airport Elevation : 30 ft
- IATA code : YMO


CYMO - Moosonee

CURRENT METAR :
  • 280600Z AUTO 28005KT 9SM CLR 03/M01 A2971 RMK SLP064

EXPIRED METARs :
  • 280500Z AUTO 27003KT 9SM CLR 03/M01 A2971 RMK SLP064
  • 280400Z AUTO 29003KT 9SM CLR 05/M01 A2972 RMK SLP068

TAF TAF CYMO
Valid from the 28 at 06:00 until the 28 at 18:00 UTC


280540Z 2806/2818 VRB03KT P6SM SKC
FM281100 30005KT P6SM BKN050
FM281400 36007KT P6SM BKN030
TEMPO 2814/2818 BKN015 RMK FCST BASED ON AUTO OBS. NXT FCST BY 281200Z
CZYZ FIR / North America



MET'MAP, your aeronautical weather chart ! - Copyright ORBIFLY December 2007 - Disclaimer

ORBIFLY MET'MAP TEAM :

Programming & Development : Alexandra Zaïnal
Original concept : Baudouin d'Aumeries
Technical & hardware support : Manuel Goepfert
Assistance : Marc-Olivier Méhu

Contact : metmap@orbifly.com




SOURCES & CREDITS :

   NOAA       Earth
Advisory